createdAt,value
2018-07-21T00:00:32.946Z,802.00
2018-07-21T00:01:33.762Z,802.00
2018-07-21T00:02:34.526Z,805.00
2018-07-21T00:03:35.304Z,801.00
2018-07-21T00:04:36.076Z,800.00
2018-07-21T00:05:36.856Z,804.00
2018-07-21T00:06:37.661Z,801.00
2018-07-21T00:07:38.443Z,805.00
2018-07-21T00:08:39.223Z,801.00
2018-07-21T00:09:39.998Z,804.00
2018-07-21T00:10:40.779Z,804.00
2018-07-21T00:11:41.579Z,797.00
2018-07-21T00:12:42.359Z,802.00
2018-07-21T00:13:43.129Z,801.00
2018-07-21T00:14:43.905Z,801.00
2018-07-21T00:15:44.687Z,801.00
2018-07-21T00:17:14.691Z,816.00
2018-07-21T00:18:15.465Z,802.00
2018-07-21T00:19:16.253Z,802.00
2018-07-21T00:20:17.015Z,802.00
2018-07-21T00:21:17.791Z,802.00
2018-07-21T00:22:18.592Z,802.00
2018-07-21T00:23:19.368Z,804.00
2018-07-21T00:24:20.145Z,802.00
2018-07-21T00:25:20.920Z,801.00
2018-07-21T00:26:21.693Z,804.00
2018-07-21T00:27:22.502Z,805.00
2018-07-21T00:28:23.291Z,806.00
2018-07-21T00:29:24.052Z,804.00
2018-07-21T00:30:24.829Z,802.00
2018-07-21T00:31:25.603Z,802.00
2018-07-21T00:32:26.407Z,801.00
2018-07-21T00:33:27.192Z,805.00
2018-07-21T00:34:27.966Z,801.00
2018-07-21T00:35:28.741Z,804.00
2018-07-21T00:36:29.532Z,801.00
2018-07-21T00:37:30.332Z,796.00
2018-07-21T00:38:31.118Z,805.00
2018-07-21T00:39:31.884Z,801.00
2018-07-21T00:40:32.668Z,806.00
2018-07-21T00:41:33.433Z,804.00
2018-07-21T00:42:34.248Z,802.00
2018-07-21T00:43:35.014Z,804.00
2018-07-21T00:44:35.798Z,802.00
2018-07-21T00:45:36.565Z,804.00
2018-07-21T00:46:37.347Z,806.00
2018-07-21T00:47:38.148Z,802.00
2018-07-21T00:48:39.928Z,802.00
2018-07-21T00:49:39.700Z,805.00
2018-07-21T00:50:40.480Z,805.00
2018-07-21T00:51:41.253Z,804.00
2018-07-21T00:52:42.070Z,808.00
2018-07-21T00:53:42.838Z,805.00
2018-07-21T00:54:43.619Z,805.00
2018-07-21T00:55:44.391Z,805.00
2018-07-21T00:56:45.169Z,805.00
2018-07-21T00:57:45.973Z,800.00
2018-07-21T00:58:46.752Z,802.00
2018-07-21T00:59:47.533Z,805.00
2018-07-21T01:00:48.310Z,802.00
2018-07-21T01:01:49.175Z,805.00
2018-07-21T01:02:48.904Z,805.00
2018-07-21T01:03:50.679Z,805.00
2018-07-21T01:04:51.464Z,806.00
2018-07-21T01:05:52.234Z,802.00
2018-07-21T01:06:53.011Z,805.00
2018-07-21T01:07:53.817Z,802.00
2018-07-21T01:08:54.601Z,805.00
2018-07-21T01:09:55.372Z,806.00
2018-07-21T01:10:56.152Z,805.00
2018-07-21T01:11:56.952Z,806.00
2018-07-21T01:12:57.739Z,807.00
2018-07-21T01:13:58.521Z,807.00
2018-07-21T01:14:59.299Z,806.00
2018-07-21T01:16:00.072Z,807.00
2018-07-21T01:17:00.874Z,806.00
2018-07-21T01:18:02.655Z,805.00
2018-07-21T01:19:02.433Z,806.00
2018-07-21T01:20:03.211Z,805.00
2018-07-21T01:21:03.987Z,807.00
2018-07-21T01:22:04.761Z,806.00
2018-07-21T01:23:05.563Z,806.00
2018-07-21T01:24:06.428Z,806.00
2018-07-21T01:25:06.127Z,806.00
2018-07-21T01:26:07.905Z,804.00
2018-07-21T01:27:08.686Z,805.00
2018-07-21T01:28:09.492Z,806.00
2018-07-21T01:29:10.279Z,806.00
2018-07-21T01:30:11.043Z,806.00
2018-07-21T01:31:11.826Z,805.00
2018-07-21T01:32:12.598Z,805.00
2018-07-21T01:33:13.402Z,804.00
2018-07-21T01:34:14.176Z,807.00
2018-07-21T01:35:14.952Z,804.00
2018-07-21T01:36:15.732Z,805.00
2018-07-21T01:37:16.510Z,801.00
2018-07-21T01:38:17.333Z,805.00
2018-07-21T01:39:18.096Z,806.00
2018-07-21T01:40:18.875Z,806.00
2018-07-21T01:41:19.647Z,806.00
2018-07-21T01:42:20.427Z,805.00
2018-07-21T01:43:21.230Z,807.00
2018-07-21T01:44:22.013Z,806.00
2018-07-21T01:45:22.787Z,806.00
2018-07-21T01:46:23.565Z,806.00
2018-07-21T01:47:24.340Z,806.00
2018-07-21T01:48:25.151Z,805.00
2018-07-21T01:49:25.922Z,806.00
2018-07-21T01:50:26.701Z,806.00
2018-07-21T01:51:27.472Z,806.00
2018-07-21T01:52:28.253Z,806.00
2018-07-21T01:53:29.052Z,811.00
2018-07-21T01:54:29.834Z,808.00
2018-07-21T01:55:30.606Z,806.00
2018-07-21T01:56:31.382Z,807.00
2018-07-21T01:57:32.182Z,802.00
2018-07-21T01:58:32.974Z,809.00
2018-07-21T01:59:33.755Z,807.00
2018-07-21T02:00:34.527Z,804.00
2018-07-21T02:01:35.305Z,806.00
2018-07-21T02:02:36.077Z,805.00
2018-07-21T02:03:36.884Z,806.00
2018-07-21T02:04:36.660Z,806.00
2018-07-21T02:05:38.438Z,806.00
2018-07-21T02:06:42.102Z,806.00
2018-07-21T02:07:40.398Z,809.00
2018-07-21T02:08:41.117Z,808.00
2018-07-21T02:19:07.361Z,814.00
2018-07-21T02:20:08.172Z,810.00
2018-07-21T02:21:08.944Z,811.00
2018-07-21T02:22:09.721Z,807.00
2018-07-21T02:23:10.494Z,808.00
2018-07-21T02:24:11.274Z,809.00
2018-07-21T02:25:12.072Z,812.00
2018-07-21T02:26:12.847Z,812.00
2018-07-21T02:27:13.622Z,812.00
2018-07-21T02:28:14.401Z,812.00
2018-07-21T02:29:15.177Z,810.00
2018-07-21T02:30:15.987Z,810.00
2018-07-21T02:31:16.757Z,811.00
2018-07-21T02:32:17.535Z,810.00
2018-07-21T02:33:18.307Z,810.00
2018-07-21T02:34:19.085Z,810.00
2018-07-21T02:35:19.916Z,810.00
2018-07-21T02:36:20.715Z,812.00
2018-07-21T02:37:21.464Z,810.00
2018-07-21T02:38:22.252Z,811.00
2018-07-21T02:39:23.015Z,807.00
2018-07-21T02:40:23.814Z,813.00
2018-07-21T02:41:24.597Z,811.00
2018-07-21T02:42:25.368Z,809.00
2018-07-21T02:43:26.147Z,811.00
2018-07-21T02:44:26.918Z,811.00
2018-07-21T02:45:27.727Z,812.00
2018-07-21T02:46:28.500Z,811.00
2018-07-21T02:47:29.272Z,810.00
2018-07-21T02:48:30.048Z,810.00
2018-07-21T02:49:30.830Z,812.00
2018-07-21T02:50:31.628Z,809.00
2018-07-21T02:51:32.408Z,812.00
2018-07-21T02:52:33.184Z,810.00
2018-07-21T02:53:33.958Z,810.00
2018-07-21T02:54:34.734Z,811.00
2018-07-21T02:55:35.537Z,811.00
2018-07-21T02:56:36.313Z,813.00
2018-07-21T02:57:37.104Z,811.00
2018-07-21T02:58:37.866Z,812.00
2018-07-21T02:59:38.725Z,811.00
2018-07-21T03:00:38.455Z,812.00
2018-07-21T03:01:40.234Z,813.00
2018-07-21T03:02:41.010Z,813.00
2018-07-21T03:03:41.787Z,812.00
2018-07-21T03:04:42.564Z,813.00
2018-07-21T03:05:43.365Z,813.00
2018-07-21T03:06:44.142Z,813.00
2018-07-21T03:07:44.913Z,812.00
2018-07-21T03:08:45.688Z,813.00
2018-07-21T03:09:46.485Z,813.00
2018-07-21T03:10:47.272Z,814.00
2018-07-21T03:11:48.055Z,817.00
2018-07-21T03:12:48.828Z,814.00
2018-07-21T03:13:49.599Z,813.00
2018-07-21T03:14:50.392Z,813.00
2018-07-21T03:15:51.194Z,816.00
2018-07-21T03:16:51.974Z,813.00
2018-07-21T03:17:52.746Z,813.00
2018-07-21T03:18:53.528Z,812.00
2018-07-21T03:19:54.296Z,809.00
2018-07-21T03:20:55.101Z,814.00
2018-07-21T03:21:55.888Z,812.00
2018-07-21T03:22:56.651Z,812.00
2018-07-21T03:23:57.426Z,811.00
2018-07-21T03:24:58.205Z,813.00
2018-07-21T03:25:59.005Z,812.00
2018-07-21T03:26:59.797Z,811.00
2018-07-21T03:28:00.563Z,811.00
2018-07-21T03:29:01.339Z,812.00
2018-07-21T03:30:02.111Z,809.00
2018-07-21T03:31:01.965Z,811.00
2018-07-21T03:32:02.703Z,814.00
2018-07-21T03:33:04.476Z,812.00
2018-07-21T03:34:05.250Z,812.00
2018-07-21T03:35:06.026Z,811.00
2018-07-21T03:36:06.831Z,810.00
2018-07-21T03:37:07.610Z,812.00
2018-07-21T03:38:08.390Z,811.00
2018-07-21T03:39:09.165Z,810.00
2018-07-21T03:40:09.941Z,810.00
2018-07-21T03:41:10.743Z,813.00
2018-07-21T03:42:11.530Z,813.00
2018-07-21T03:43:12.292Z,812.00
2018-07-21T03:44:13.070Z,813.00
2018-07-21T03:45:13.851Z,813.00
2018-07-21T03:46:15.652Z,813.00
2018-07-21T03:47:15.425Z,816.00
2018-07-21T03:48:16.216Z,816.00
2018-07-21T03:49:16.991Z,820.00
2018-07-21T03:50:17.767Z,817.00
2018-07-21T03:51:18.570Z,816.00
2018-07-21T03:52:19.352Z,816.00
2018-07-21T03:53:20.120Z,819.00
2018-07-21T03:54:20.979Z,814.00
2018-07-21T03:55:20.684Z,817.00
2018-07-21T03:56:21.496Z,814.00
2018-07-21T03:57:23.272Z,813.00
2018-07-21T03:58:24.042Z,812.00
2018-07-21T03:59:24.819Z,809.00
2018-07-21T04:00:25.609Z,812.00
2018-07-21T04:01:26.404Z,817.00
2018-07-21T04:02:27.178Z,817.00
2018-07-21T04:03:27.953Z,819.00
2018-07-21T04:04:28.729Z,819.00
2018-07-21T04:05:29.505Z,820.00
2018-07-21T04:06:30.307Z,818.00
2018-07-21T04:07:31.081Z,814.00
2018-07-21T04:08:31.860Z,814.00
2018-07-21T04:09:33.098Z,819.00
2018-07-21T04:10:33.349Z,821.00
2018-07-21T04:11:32.641Z,823.00
2018-07-21T04:22:03.360Z,831.00
2018-07-21T04:23:03.163Z,833.00
2018-07-21T04:24:03.969Z,833.00
2018-07-21T04:25:05.722Z,834.00
2018-07-21T04:26:06.496Z,835.00
2018-07-21T04:27:07.273Z,841.00
2018-07-21T04:28:08.076Z,840.00
2018-07-21T04:29:08.848Z,842.00
2018-07-21T04:30:09.628Z,838.00
2018-07-21T04:31:10.409Z,837.00
2018-07-21T04:32:11.174Z,832.00
2018-07-21T04:33:11.973Z,828.00
2018-07-21T04:34:12.783Z,825.00
2018-07-21T04:35:12.770Z,823.00
2018-07-21T04:36:13.494Z,823.00
2018-07-21T04:37:14.263Z,823.00
2018-07-21T04:38:16.056Z,821.00
2018-07-21T04:39:16.861Z,823.00
2018-07-21T04:40:17.627Z,822.00
2018-07-21T04:41:18.449Z,826.00
2018-07-21T04:42:18.199Z,824.00
2018-07-21T04:43:20.004Z,825.00
2018-07-21T04:44:20.781Z,832.00
2018-07-21T04:45:21.553Z,834.00
2018-07-21T04:46:22.329Z,838.00
2018-07-21T04:47:23.104Z,840.00
2018-07-21T04:48:23.909Z,841.00
2018-07-21T04:49:24.689Z,841.00
2018-07-21T04:50:25.460Z,842.00
2018-07-21T04:51:26.243Z,835.00
2018-07-21T04:52:27.012Z,832.00
2018-07-21T04:53:27.815Z,832.00
2018-07-21T04:54:28.591Z,825.00
2018-07-21T04:55:29.369Z,824.00
2018-07-21T04:56:30.144Z,824.00
2018-07-21T04:57:31.917Z,824.00
2018-07-21T04:58:31.718Z,824.00
2018-07-21T04:59:32.505Z,822.00
2018-07-21T05:00:33.281Z,823.00
2018-07-21T05:01:34.056Z,821.00
2018-07-21T05:02:34.829Z,817.00
2018-07-21T05:03:35.633Z,819.00
2018-07-21T05:04:36.403Z,819.00
2018-07-21T05:05:37.180Z,820.00
2018-07-21T05:06:37.954Z,817.00
2018-07-21T05:07:38.732Z,817.00
2018-07-21T05:08:39.543Z,819.00
2018-07-21T05:09:40.312Z,821.00
2018-07-21T05:10:41.091Z,824.00
2018-07-21T05:11:41.864Z,828.00
2018-07-21T05:12:42.641Z,831.00
2018-07-21T05:13:44.445Z,825.00
2018-07-21T05:14:44.215Z,823.00
2018-07-21T05:15:44.993Z,822.00
2018-07-21T05:16:45.768Z,821.00
2018-07-21T05:17:46.543Z,821.00
2018-07-21T05:18:47.360Z,818.00
2018-07-21T05:19:48.138Z,818.00
2018-07-21T05:20:48.907Z,816.00
2018-07-21T05:21:49.694Z,817.00
2018-07-21T05:22:50.459Z,817.00
2018-07-21T05:23:52.266Z,817.00
2018-07-21T05:24:52.044Z,817.00
2018-07-21T05:25:52.822Z,816.00
2018-07-21T05:26:53.592Z,814.00
2018-07-21T05:27:54.374Z,819.00
2018-07-21T05:28:55.172Z,816.00
2018-07-21T05:29:55.958Z,816.00
2018-07-21T05:30:56.731Z,814.00
2018-07-21T05:31:57.523Z,816.00
2018-07-21T05:32:58.286Z,818.00
2018-07-21T05:33:59.099Z,816.00
2018-07-21T05:34:59.868Z,816.00
2018-07-21T05:36:00.648Z,816.00
2018-07-21T05:37:01.416Z,816.00
2018-07-21T05:38:02.196Z,814.00
2018-07-21T05:39:03.017Z,816.00
2018-07-21T05:40:03.775Z,817.00
2018-07-21T05:41:04.549Z,818.00
2018-07-21T05:42:05.331Z,814.00
2018-07-21T05:43:06.106Z,816.00
2018-07-21T05:44:06.920Z,816.00
2018-07-21T05:45:07.771Z,817.00
2018-07-21T05:46:07.480Z,813.00
2018-07-21T05:47:09.239Z,813.00
2018-07-21T05:48:10.024Z,813.00
2018-07-21T05:49:10.837Z,814.00
2018-07-21T05:50:11.600Z,817.00
2018-07-21T05:51:12.383Z,813.00
2018-07-21T05:52:13.161Z,814.00
2018-07-21T05:53:13.985Z,817.00
2018-07-21T05:54:13.749Z,816.00
2018-07-21T05:55:15.523Z,814.00
2018-07-21T05:56:16.298Z,813.00
2018-07-21T05:57:17.076Z,816.00
2018-07-21T05:58:17.862Z,817.00
2018-07-21T05:59:18.666Z,814.00
2018-07-21T06:00:19.447Z,813.00
2018-07-21T06:01:20.222Z,814.00
2018-07-21T06:02:20.997Z,812.00
2018-07-21T06:03:21.773Z,813.00
2018-07-21T06:04:22.583Z,813.00
2018-07-21T06:05:23.362Z,817.00
2018-07-21T06:06:24.134Z,814.00
2018-07-21T06:07:24.910Z,814.00
2018-07-21T06:08:25.685Z,814.00
2018-07-21T06:09:25.491Z,813.00
2018-07-21T06:10:27.263Z,813.00
2018-07-21T06:11:28.040Z,813.00
2018-07-21T06:12:28.823Z,813.00
2018-07-21T06:13:29.592Z,813.00
2018-07-21T06:14:30.403Z,813.00
2018-07-21T06:15:31.177Z,813.00
2018-07-21T06:16:32.393Z,813.00
2018-07-21T06:17:33.719Z,816.00
2018-07-21T06:18:32.006Z,812.00
2018-07-21T06:20:00.488Z,825.00
2018-07-21T06:21:01.264Z,812.00
2018-07-21T06:22:02.036Z,814.00
2018-07-21T06:23:02.811Z,812.00
2018-07-21T06:24:03.586Z,812.00
2018-07-21T06:25:04.391Z,811.00
2018-07-21T06:26:05.169Z,812.00
2018-07-21T06:27:05.950Z,812.00
2018-07-21T06:28:06.794Z,812.00
2018-07-21T06:29:06.503Z,814.00
2018-07-21T06:30:08.305Z,813.00
2018-07-21T06:31:09.092Z,812.00
2018-07-21T06:32:09.856Z,813.00
2018-07-21T06:33:10.640Z,812.00
2018-07-21T06:34:11.408Z,816.00
2018-07-21T06:35:12.218Z,813.00
2018-07-21T06:36:12.992Z,812.00
2018-07-21T06:37:13.766Z,813.00
2018-07-21T06:38:14.538Z,812.00
2018-07-21T06:39:15.318Z,811.00
2018-07-21T06:40:16.118Z,810.00
2018-07-21T06:41:17.896Z,814.00
2018-07-21T06:42:17.668Z,810.00
2018-07-21T06:43:18.454Z,810.00
2018-07-21T06:44:19.231Z,811.00
2018-07-21T06:45:20.030Z,810.00
2018-07-21T06:46:20.807Z,809.00
2018-07-21T06:47:21.591Z,809.00
2018-07-21T06:48:22.361Z,809.00
2018-07-21T06:49:23.140Z,807.00
2018-07-21T06:50:23.943Z,808.00
2018-07-21T06:51:24.720Z,808.00
2018-07-21T06:52:25.495Z,806.00
2018-07-21T06:53:26.273Z,812.00
2018-07-21T06:54:27.091Z,807.00
2018-07-21T06:55:26.858Z,807.00
2018-07-21T06:56:28.645Z,807.00
2018-07-21T06:57:29.410Z,806.00
2018-07-21T06:58:30.193Z,807.00
2018-07-21T06:59:31.053Z,807.00
2018-07-21T07:00:30.799Z,810.00
2018-07-21T07:01:32.572Z,807.00
2018-07-21T07:02:33.336Z,806.00
2018-07-21T07:03:34.117Z,807.00
2018-07-21T07:04:34.926Z,807.00
2018-07-21T07:05:35.689Z,812.00
2018-07-21T07:06:36.468Z,807.00
2018-07-21T07:07:37.237Z,806.00
2018-07-21T07:08:38.018Z,806.00
2018-07-21T07:09:38.793Z,805.00
2018-07-21T07:10:39.595Z,806.00
2018-07-21T07:11:40.373Z,807.00
2018-07-21T07:12:41.148Z,807.00
2018-07-21T07:13:41.932Z,812.00
2018-07-21T07:14:42.711Z,806.00
2018-07-21T07:15:43.510Z,806.00
2018-07-21T07:16:44.287Z,807.00
2018-07-21T07:17:45.072Z,812.00
2018-07-21T07:18:45.844Z,806.00
2018-07-21T07:19:46.617Z,805.00
2018-07-21T07:20:47.422Z,804.00
2018-07-21T07:21:48.207Z,807.00
2018-07-21T07:22:48.982Z,806.00
2018-07-21T07:23:49.757Z,807.00
2018-07-21T07:24:50.535Z,806.00
2018-07-21T07:25:51.345Z,807.00
2018-07-21T07:26:52.118Z,813.00
2018-07-21T07:27:52.899Z,806.00
2018-07-21T07:28:53.675Z,807.00
2018-07-21T07:29:54.450Z,812.00
2018-07-21T07:30:55.271Z,807.00
2018-07-21T07:31:56.043Z,812.00
2018-07-21T07:32:56.822Z,804.00
2018-07-21T07:33:57.597Z,806.00
2018-07-21T07:34:58.378Z,804.00
2018-07-21T07:35:59.276Z,805.00
2018-07-21T07:36:58.976Z,805.00
2018-07-21T07:38:00.754Z,804.00
2018-07-21T07:39:01.534Z,801.00
2018-07-21T07:40:02.309Z,802.00
2018-07-21T07:41:03.111Z,807.00
2018-07-21T07:42:03.906Z,802.00
2018-07-21T07:43:03.665Z,800.00
2018-07-21T07:44:05.441Z,801.00
2018-07-21T07:45:06.224Z,800.00
2018-07-21T07:46:07.019Z,800.00
2018-07-21T07:47:07.799Z,801.00
2018-07-21T07:48:08.574Z,805.00
2018-07-21T07:49:09.351Z,799.00
2018-07-21T07:50:10.126Z,799.00
2018-07-21T07:51:09.951Z,799.00
2018-07-21T07:52:11.734Z,799.00
2018-07-21T07:53:12.496Z,804.00
2018-07-21T07:54:13.278Z,798.00
2018-07-21T07:55:14.049Z,797.00
2018-07-21T07:56:14.853Z,798.00
2018-07-21T07:57:15.628Z,798.00
2018-07-21T07:58:17.412Z,797.00
2018-07-21T07:59:17.179Z,798.00
2018-07-21T08:00:17.962Z,797.00
2018-07-21T08:01:18.790Z,801.00
2018-07-21T08:02:18.542Z,797.00
2018-07-21T08:03:20.322Z,795.00
2018-07-21T08:04:21.107Z,795.00
2018-07-21T08:05:21.870Z,802.00
2018-07-21T08:06:22.676Z,795.00
2018-07-21T08:07:23.451Z,796.00
2018-07-21T08:08:24.237Z,795.00
2018-07-21T08:09:24.002Z,796.00
2018-07-21T08:10:25.777Z,795.00
2018-07-21T08:11:26.581Z,796.00
2018-07-21T08:12:27.363Z,795.00
2018-07-21T08:13:28.138Z,800.00
2018-07-21T08:14:29.339Z,796.00
2018-07-21T08:15:29.602Z,798.00
2018-07-21T08:16:28.918Z,799.00
2018-07-21T08:17:37.321Z,806.00
2018-07-21T08:18:38.106Z,797.00
2018-07-21T08:19:38.872Z,797.00
2018-07-21T08:20:39.650Z,797.00
2018-07-21T08:21:40.517Z,798.00
2018-07-21T08:22:41.296Z,797.00
2018-07-21T08:23:42.072Z,798.00
2018-07-21T08:24:42.850Z,797.00
2018-07-21T08:25:44.623Z,797.00
2018-07-21T08:26:44.428Z,797.00
2018-07-21T08:27:45.226Z,796.00
2018-07-21T08:28:45.991Z,796.00
2018-07-21T08:29:46.772Z,801.00
2018-07-21T08:30:47.548Z,796.00
2018-07-21T08:31:48.352Z,802.00
2018-07-21T08:32:49.133Z,795.00
2018-07-21T08:33:49.911Z,797.00
2018-07-21T08:34:50.687Z,797.00
2018-07-21T08:35:51.462Z,796.00
2018-07-21T08:36:52.272Z,797.00
2018-07-21T08:37:53.048Z,793.00
2018-07-21T08:38:53.827Z,797.00
2018-07-21T08:39:54.602Z,796.00
2018-07-21T08:40:55.383Z,797.00
2018-07-21T08:41:56.203Z,802.00
2018-07-21T08:42:56.969Z,796.00
2018-07-21T08:43:57.752Z,795.00
2018-07-21T08:44:58.526Z,801.00
2018-07-21T08:45:59.304Z,795.00
2018-07-21T08:47:00.132Z,796.00
2018-07-21T08:48:00.894Z,796.00
2018-07-21T08:49:01.678Z,795.00
2018-07-21T08:50:02.446Z,801.00
2018-07-21T08:51:03.229Z,796.00
2018-07-21T08:52:04.028Z,795.00
2018-07-21T08:53:04.812Z,801.00
2018-07-21T08:54:05.591Z,796.00
2018-07-21T08:55:06.363Z,796.00
2018-07-21T08:56:07.202Z,797.00
2018-07-21T08:57:06.955Z,797.00
2018-07-21T08:58:08.723Z,793.00
2018-07-21T08:59:09.499Z,797.00
2018-07-21T09:00:10.279Z,796.00
2018-07-21T09:01:11.052Z,804.00
2018-07-21T09:02:11.862Z,798.00
2018-07-21T09:03:12.637Z,798.00
2018-07-21T09:04:13.413Z,798.00
2018-07-21T09:05:14.191Z,802.00
2018-07-21T09:06:14.981Z,797.00
2018-07-21T09:07:15.768Z,797.00
2018-07-21T09:08:16.552Z,797.00
2018-07-21T09:09:17.324Z,797.00
2018-07-21T09:10:18.102Z,796.00
2018-07-21T09:11:18.878Z,796.00
2018-07-21T09:12:19.679Z,795.00
2018-07-21T09:13:20.454Z,796.00
2018-07-21T09:14:21.237Z,795.00
2018-07-21T09:15:22.014Z,796.00
2018-07-21T09:16:22.790Z,796.00
2018-07-21T09:17:23.598Z,801.00
2018-07-21T09:18:24.379Z,793.00
2018-07-21T09:19:25.148Z,801.00
2018-07-21T09:20:25.931Z,795.00
2018-07-21T09:21:26.763Z,797.00
2018-07-21T09:22:26.508Z,795.00
2018-07-21T09:23:28.283Z,797.00
2018-07-21T09:24:29.056Z,796.00
2018-07-21T09:25:29.833Z,796.00
2018-07-21T09:26:30.605Z,796.00
2018-07-21T09:27:31.410Z,796.00
2018-07-21T09:28:32.192Z,796.00
2018-07-21T09:29:32.967Z,801.00
2018-07-21T09:30:33.747Z,796.00
2018-07-21T09:31:34.527Z,796.00
2018-07-21T09:32:35.328Z,797.00
2018-07-21T09:33:36.101Z,797.00
2018-07-21T09:34:36.879Z,797.00
2018-07-21T09:35:37.661Z,802.00
2018-07-21T09:36:38.430Z,797.00
2018-07-21T09:37:39.243Z,795.00
2018-07-21T09:38:40.103Z,797.00
2018-07-21T09:39:40.804Z,798.00
2018-07-21T09:40:41.582Z,804.00
2018-07-21T09:41:42.356Z,802.00
2018-07-21T09:42:43.170Z,799.00
2018-07-21T09:43:43.945Z,800.00
2018-07-21T09:44:44.732Z,799.00
2018-07-21T09:45:45.495Z,800.00
2018-07-21T09:46:46.355Z,801.00
2018-07-21T09:47:46.100Z,802.00
2018-07-21T09:48:47.864Z,802.00
2018-07-21T09:49:48.647Z,801.00
2018-07-21T09:50:49.422Z,806.00
2018-07-21T09:51:51.197Z,801.00
2018-07-21T09:52:51.002Z,801.00
2018-07-21T09:53:51.783Z,805.00
2018-07-21T09:54:52.560Z,799.00
2018-07-21T09:55:52.466Z,800.00
2018-07-21T09:56:53.125Z,799.00
2018-07-21T09:57:54.922Z,797.00
2018-07-21T09:58:55.707Z,800.00
2018-07-21T09:59:56.474Z,799.00
2018-07-21T10:00:57.261Z,799.00
2018-07-21T10:01:58.024Z,800.00
2018-07-21T10:02:58.832Z,801.00
2018-07-21T10:03:59.609Z,801.00
2018-07-21T10:05:00.383Z,805.00
2018-07-21T10:06:01.157Z,799.00
2018-07-21T10:07:01.935Z,799.00
2018-07-21T10:08:02.739Z,799.00
2018-07-21T10:09:03.534Z,799.00
2018-07-21T10:10:04.730Z,802.00
2018-07-21T10:13:52.091Z,806.00
2018-07-21T10:14:52.867Z,800.00
2018-07-21T10:15:53.650Z,800.00
2018-07-21T10:16:54.410Z,799.00
2018-07-21T10:17:55.201Z,799.00
2018-07-21T10:18:55.991Z,798.00
2018-07-21T10:19:56.765Z,805.00
2018-07-21T10:20:57.538Z,799.00
2018-07-21T10:21:58.397Z,798.00
2018-07-21T10:22:58.107Z,799.00
2018-07-21T10:23:59.899Z,799.00
2018-07-21T10:25:00.674Z,805.00
2018-07-21T10:26:01.454Z,799.00
2018-07-21T10:27:02.229Z,796.00
2018-07-21T10:28:02.997Z,797.00
2018-07-21T10:29:03.801Z,801.00
2018-07-21T10:30:04.629Z,796.00
2018-07-21T10:31:04.352Z,797.00
2018-07-21T10:32:06.125Z,797.00
2018-07-21T10:33:06.961Z,796.00
2018-07-21T10:34:06.707Z,794.00
2018-07-21T10:35:08.492Z,796.00
2018-07-21T10:36:09.264Z,796.00
2018-07-21T10:37:10.037Z,796.00
2018-07-21T10:38:10.890Z,796.00
2018-07-21T10:39:10.618Z,795.00
2018-07-21T10:40:12.393Z,796.00
2018-07-21T10:41:13.176Z,810.00
2018-07-21T10:42:13.947Z,797.00
2018-07-21T10:43:14.725Z,795.00
2018-07-21T10:44:15.529Z,796.00
2018-07-21T10:45:16.307Z,795.00
2018-07-21T10:46:17.080Z,794.00
2018-07-21T10:47:17.859Z,793.00
2018-07-21T10:48:18.652Z,793.00
2018-07-21T10:49:19.455Z,804.00
2018-07-21T10:50:20.232Z,794.00
2018-07-21T10:51:21.004Z,795.00
2018-07-21T10:52:21.783Z,795.00
2018-07-21T10:53:22.655Z,802.00
2018-07-21T10:54:22.386Z,792.00
2018-07-21T10:55:24.160Z,794.00
2018-07-21T10:56:24.942Z,794.00
2018-07-21T10:57:25.721Z,794.00
2018-07-21T10:58:26.508Z,793.00
2018-07-21T10:59:27.303Z,801.00
2018-07-21T11:00:28.081Z,793.00
2018-07-21T11:01:28.857Z,792.00
2018-07-21T11:02:29.632Z,793.00
2018-07-21T11:03:30.435Z,794.00
2018-07-21T11:04:31.243Z,800.00
2018-07-21T11:05:32.019Z,798.00
2018-07-21T11:06:32.796Z,793.00
2018-07-21T11:07:33.568Z,794.00
2018-07-21T11:08:34.436Z,793.00
2018-07-21T11:09:34.166Z,805.00
2018-07-21T11:10:35.940Z,792.00
2018-07-21T11:11:36.719Z,790.00
2018-07-21T11:12:37.496Z,792.00
2018-07-21T11:13:38.268Z,790.00
2018-07-21T11:14:39.074Z,802.00
2018-07-21T11:15:39.857Z,789.00
2018-07-21T11:16:40.628Z,789.00
2018-07-21T11:17:41.410Z,802.00
2018-07-21T11:18:42.185Z,788.00
2018-07-21T11:19:43.983Z,801.00
2018-07-21T11:20:43.757Z,788.00
2018-07-21T11:21:44.544Z,787.00
2018-07-21T11:22:45.319Z,787.00
2018-07-21T11:23:46.100Z,787.00
2018-07-21T11:24:46.900Z,798.00
2018-07-21T11:25:47.683Z,788.00
2018-07-21T11:26:48.456Z,787.00
2018-07-21T11:27:49.232Z,787.00
2018-07-21T11:28:50.007Z,786.00
2018-07-21T11:29:50.812Z,800.00
2018-07-21T11:30:51.598Z,787.00
2018-07-21T11:31:52.377Z,785.00
2018-07-21T11:32:53.160Z,786.00
2018-07-21T11:33:53.929Z,784.00
2018-07-21T11:34:54.739Z,786.00
2018-07-21T11:35:55.778Z,794.00
2018-07-21T11:36:55.297Z,788.00
2018-07-21T11:37:57.072Z,787.00
2018-07-21T11:38:57.850Z,787.00
2018-07-21T11:39:58.663Z,786.00
2018-07-21T11:40:59.437Z,795.00
2018-07-21T11:42:00.212Z,786.00
2018-07-21T11:43:00.987Z,786.00
2018-07-21T11:44:01.763Z,786.00
2018-07-21T11:45:02.590Z,787.00
2018-07-21T11:46:03.354Z,796.00
2018-07-21T11:47:04.140Z,787.00
2018-07-21T11:48:04.907Z,787.00
2018-07-21T11:49:05.685Z,787.00
2018-07-21T11:50:06.490Z,787.00
2018-07-21T11:51:07.267Z,796.00
2018-07-21T11:52:08.041Z,787.00
2018-07-21T11:53:09.811Z,795.00
2018-07-21T11:54:09.591Z,786.00
2018-07-21T11:55:10.401Z,786.00
2018-07-21T11:56:11.175Z,795.00
2018-07-21T11:57:11.961Z,785.00
2018-07-21T11:58:12.728Z,786.00
2018-07-21T11:59:13.567Z,784.00
2018-07-21T12:00:13.314Z,787.00
2018-07-21T12:01:15.090Z,798.00
2018-07-21T12:02:15.863Z,785.00
2018-07-21T12:03:16.640Z,786.00
2018-07-21T12:04:17.421Z,786.00
2018-07-21T12:05:18.289Z,800.00
2018-07-21T12:06:18.003Z,786.00
2018-07-21T12:07:19.779Z,785.00
2018-07-21T12:08:20.981Z,786.00
2018-07-21T12:09:21.248Z,785.00
2018-07-21T12:10:20.564Z,786.00
2018-07-21T12:11:29.819Z,798.00
2018-07-21T12:12:30.678Z,787.00
2018-07-21T12:13:30.430Z,784.00
2018-07-21T12:14:31.200Z,784.00
2018-07-21T12:15:31.957Z,785.00
2018-07-21T12:16:33.737Z,784.00
2018-07-21T12:17:34.610Z,796.00
2018-07-21T12:18:34.303Z,783.00
2018-07-21T12:19:36.085Z,783.00
2018-07-21T12:20:36.891Z,797.00
2018-07-21T12:21:37.667Z,782.00
2018-07-21T12:22:38.441Z,782.00
2018-07-21T12:23:38.218Z,783.00
2018-07-21T12:24:39.991Z,783.00
2018-07-21T12:25:40.800Z,793.00
2018-07-21T12:26:41.582Z,785.00
2018-07-21T12:27:42.347Z,785.00
2018-07-21T12:28:43.130Z,784.00
2018-07-21T12:29:43.899Z,795.00
2018-07-21T12:30:44.701Z,782.00
2018-07-21T12:31:45.480Z,780.00
2018-07-21T12:32:46.254Z,781.00
2018-07-21T12:33:47.147Z,782.00
2018-07-21T12:34:46.805Z,783.00
2018-07-21T12:35:48.611Z,795.00
2018-07-21T12:36:49.387Z,781.00
2018-07-21T12:37:50.166Z,796.00
2018-07-21T12:38:50.939Z,783.00
2018-07-21T12:39:51.717Z,783.00
2018-07-21T12:40:52.536Z,796.00
2018-07-21T12:41:53.298Z,783.00
2018-07-21T12:42:54.081Z,783.00
2018-07-21T12:43:54.852Z,783.00
2018-07-21T12:44:55.651Z,785.00
2018-07-21T12:45:55.436Z,792.00
2018-07-21T12:46:57.214Z,792.00
2018-07-21T12:47:57.994Z,783.00
2018-07-21T12:48:58.769Z,784.00
2018-07-21T12:49:59.562Z,784.00
2018-07-21T12:51:00.357Z,796.00
2018-07-21T12:52:01.129Z,784.00
2018-07-21T12:53:01.907Z,789.00
2018-07-21T12:54:02.680Z,785.00
2018-07-21T12:55:03.457Z,790.00
2018-07-21T12:56:04.265Z,802.00
2018-07-21T12:57:05.035Z,788.00
2018-07-21T12:58:05.833Z,787.00
2018-07-21T12:59:06.602Z,785.00
2018-07-21T13:00:07.381Z,785.00
2018-07-21T13:01:08.187Z,795.00